Time;durP1;ratioP1;P1;durP2;ratioP2;P2;SDS_P1;SDS_P2;PMS_P1;PMS_P2;Temp;Humidity;BMP_temperature;BMP_pressure;BME280_temperature;BME280_humidity;BME280_pressure;Samples;Min_cycle;Max_cycle;Signal;HPM_P1;HPM_P2
2023/02/19 00:01:46;;;;;;;68.55;41.97;;;6.70;99.90;;;;;;4943543;29;20039;-67
2023/02/19 00:04:21;;;;;;;97.60;53.92;;;6.90;99.90;;;;;;4953678;29;20127;-68
2023/02/19 00:06:49;;;;;;;122.47;67.97;;;6.70;99.90;;;;;;4953430;29;20039;-68
2023/02/19 00:09:18;;;;;;;101.63;58.40;;;6.90;99.90;;;;;;4954452;29;20051;-67
2023/02/19 00:11:46;;;;;;;81.57;47.15;;;6.80;99.90;;;;;;4954759;29;20039;-71
2023/02/19 00:14:19;;;;;;;76.55;47.05;;;6.80;99.90;;;;;;4954299;28;20055;-67
2023/02/19 00:16:48;;;;;;;82.47;49.00;;;6.50;99.90;;;;;;4937278;29;20058;-68
2023/02/19 00:19:18;;;;;;;73.40;44.38;;;6.40;99.90;;;;;;4937620;29;20036;-68
2023/02/19 00:21:46;;;;;;;83.30;46.58;;;6.40;99.90;;;;;;4954804;29;20039;-72
2023/02/19 00:24:14;;;;;;;77.85;49.28;;;6.30;99.90;;;;;;4937110;29;20051;-67
2023/02/19 00:26:44;;;;;;;84.68;51.40;;;6.00;99.90;;;;;;4937586;29;20039;-67
2023/02/19 00:29:17;;;;;;;86.88;52.05;;;6.00;99.90;;;;;;4952771;29;20408;-68
2023/02/19 00:31:45;;;;;;;96.32;57.72;;;6.20;99.90;;;;;;4951926;29;20042;-67
2023/02/19 00:34:13;;;;;;;103.30;59.97;;;6.10;99.90;;;;;;4954257;29;20539;-69
2023/02/19 00:36:41;;;;;;;100.50;58.15;;;6.20;99.90;;;;;;4936978;29;20039;-72
2023/02/19 00:39:14;;;;;;;95.90;59.58;;;6.30;99.90;;;;;;4954428;29;20052;-69
2023/02/19 00:41:42;;;;;;;99.97;56.50;;;6.10;99.90;;;;;;4954408;29;20113;-71
2023/02/19 00:44:11;;;;;;;99.55;59.85;;;6.00;99.90;;;;;;4954002;29;20039;-66
2023/02/19 00:46:41;;;;;;;91.32;54.85;;;6.30;99.90;;;;;;4954244;29;20047;-66
2023/02/19 00:49:17;;;;;;;96.75;54.85;;;6.10;99.90;;;;;;4954022;29;20039;-70
2023/02/19 00:51:45;;;;;;;92.95;54.70;;;6.10;99.90;;;;;;4953765;29;20050;-69
2023/02/19 00:54:13;;;;;;;91.47;53.70;;;6.20;99.90;;;;;;4954323;29;20040;-68
2023/02/19 00:56:40;;;;;;;85.78;51.58;;;5.90;99.90;;;;;;4954403;29;20054;-67
2023/02/19 00:59:08;;;;;;;72.28;44.17;;;5.90;99.90;;;;;;4954174;29;20047;-71
2023/02/19 01:01:35;;;;;;;67.47;42.20;;;6.00;99.90;;;;;;4954293;29;20050;-68
2023/02/19 01:04:02;;;;;;;65.65;41.35;;;6.00;99.90;;;;;;4954015;29;20566;-68
2023/02/19 01:06:33;;;;;;;70.90;40.58;;;5.90;99.90;;;;;;4937071;29;20110;-66
2023/02/19 01:09:01;;;;;;;74.72;42.83;;;5.80;99.90;;;;;;4953646;29;20149;-66
2023/02/19 01:11:28;;;;;;;65.18;39.80;;;5.90;99.90;;;;;;4954274;29;20424;-65
2023/02/19 01:13:59;;;;;;;67.38;40.17;;;6.10;99.90;;;;;;4953276;28;20054;-66
2023/02/19 01:16:27;;;;;;;64.85;40.40;;;6.00;99.90;;;;;;4929157;29;20055;-65
2023/02/19 01:18:56;;;;;;;61.10;38.85;;;5.80;99.90;;;;;;4946663;29;20047;-67
2023/02/19 01:21:25;;;;;;;55.40;37.33;;;5.90;99.90;;;;;;4954419;29;20392;-66
2023/02/19 01:23:54;;;;;;;63.40;37.90;;;5.90;99.90;;;;;;4940587;29;20539;-70
2023/02/19 01:26:24;;;;;;;58.50;38.47;;;5.90;99.90;;;;;;4953610;29;20278;-67
2023/02/19 01:28:52;;;;;;;;;;;5.80;99.90;;;;;;4954159;29;20051;-68
2023/02/19 01:31:21;;;;;;;67.65;38.30;;;5.60;99.90;;;;;;4953542;29;19926;-68
2023/02/19 01:33:54;;;;;;;67.70;38.93;;;5.50;99.90;;;;;;4936297;29;20057;-70
2023/02/19 01:36:22;;;;;;;61.78;37.63;;;5.40;99.90;;;;;;4953692;29;20332;-67
2023/02/19 01:38:49;;;;;;;60.15;39.15;;;5.50;99.90;;;;;;4953470;29;20040;-65
2023/02/19 01:41:20;;;;;;;64.45;40.38;;;5.70;99.90;;;;;;4953791;29;20047;-67
2023/02/19 01:44:00;;;;;;;64.55;39.83;;;5.60;99.90;;;;;;4953431;29;20043;-70
2023/02/19 01:46:33;;;;;;;66.32;39.67;;;5.70;99.90;;;;;;4953637;29;20047;-66
2023/02/19 01:49:12;;;;;;;70.18;40.20;;;5.60;99.90;;;;;;4953566;29;20398;-66
2023/02/19 01:51:57;;;;;;;69.20;40.37;;;5.70;99.90;;;;;;4920643;29;20054;-69
2023/02/19 01:54:29;;;;;;;72.75;41.53;;;5.70;99.90;;;;;;4953499;29;20039;-71
2023/02/19 01:56:58;;;;;;;72.72;43.97;;;5.70;99.90;;;;;;4953144;29;20047;-71
2023/02/19 01:59:25;;;;;;;71.13;42.33;;;5.50;99.90;;;;;;4953281;29;20043;-69
2023/02/19 02:01:52;;;;;;;68.40;40.70;;;5.50;99.90;;;;;;4953497;29;20071;-65
2023/02/19 02:04:20;;;;;;;66.95;39.28;;;5.50;99.90;;;;;;4952778;29;20078;-67
2023/02/19 02:06:53;;;;;;;71.03;41.88;;;5.60;99.90;;;;;;4953406;29;20050;-67
2023/02/19 02:12:11;;;;;;;70.55;42.17;;;5.60;99.90;;;;;;4953139;29;20058;-69
2023/02/19 02:14:42;;;;;;;71.18;44.25;;;5.70;99.90;;;;;;4943649;29;20047;-66
2023/02/19 02:17:50;;;;;;;84.28;47.65;;;5.70;99.90;;;;;;4952980;29;20044;-72
2023/02/19 02:20:26;;;;;;;81.75;46.97;;;5.60;99.90;;;;;;4935654;29;20058;-71
2023/02/19 02:23:14;;;;;;;82.65;47.95;;;5.40;99.90;;;;;;4953149;29;20035;-66
2023/02/19 02:25:55;;;;;;;88.18;50.63;;;5.30;99.90;;;;;;4933819;29;20467;-69
2023/02/19 02:28:58;;;;;;;76.30;47.60;;;5.20;99.90;;;;;;4952771;29;20035;-71
2023/02/19 02:31:32;;;;;;;76.40;45.25;;;5.20;99.90;;;;;;4877784;29;20049;-65
2023/02/19 02:34:17;;;;;;;76.57;45.25;;;5.30;99.90;;;;;;4934131;29;20121;-70
2023/02/19 02:36:48;;;;;;;77.50;45.40;;;5.30;99.90;;;;;;4952627;29;20404;-70
2023/02/19 02:39:20;;;;;;;80.38;45.00;;;5.40;99.90;;;;;;4923786;29;20049;-65
2023/02/19 02:45:33;;;;;;;73.90;43.97;;;5.10;99.90;;;;;;4935963;29;20059;-65
2023/02/19 02:47:40;;;;;;;76.03;44.30;;;5.00;99.90;;;;;;4935751;29;20043;-66
2023/02/19 02:50:16;;;;;;;69.85;43.85;;;4.80;99.90;;;;;;4919642;29;20051;-65
2023/02/19 02:55:40;;;;;;;72.72;42.67;;;4.90;99.90;;;;;;4924721;29;20047;-68
2023/02/19 02:58:08;;;;;;;82.88;47.75;;;5.00;99.90;;;;;;4952591;29;20086;-68
2023/02/19 03:03:27;;;;;;;85.20;48.03;;;5.00;99.90;;;;;;4923421;29;20122;-68
2023/02/19 03:06:01;;;;;;;81.65;48.17;;;5.20;99.90;;;;;;4952343;29;20046;-71
2023/02/19 03:08:41;;;;;;;77.88;47.13;;;4.90;99.90;;;;;;4952391;29;20043;-65
2023/02/19 03:20:17;;;;;;;93.05;49.53;;;5.00;99.90;;;;;;4946877;29;20410;-65
2023/02/19 03:22:47;;;;;;;94.15;55.00;;;4.90;99.90;;;;;;4943611;29;20035;-66
2023/02/19 03:28:11;;;;;;;94.60;53.78;;;4.90;99.90;;;;;;4952730;29;20396;-72
2023/02/19 03:30:49;;;;;;;94.68;53.72;;;4.70;99.90;;;;;;4952463;28;20035;-71
2023/02/19 03:33:17;;;;;;;103.32;56.28;;;4.60;99.90;;;;;;4951233;29;20045;-70
2023/02/19 03:35:59;;;;;;;93.30;53.13;;;4.50;99.90;;;;;;4951454;28;20051;-66
2023/02/19 03:38:39;;;;;;;87.28;52.95;;;4.50;99.90;;;;;;4955663;28;20040;-70
2023/02/19 03:41:15;;;;;;;;;;;4.50;99.90;;;;;;4955883;28;20047;-68
2023/02/19 03:44:01;;;;;;;84.43;48.00;;;4.50;99.90;;;;;;4954683;29;20298;-66
2023/02/19 03:46:51;;;;;;;77.05;47.10;;;4.40;99.90;;;;;;4954511;29;20043;-67
2023/02/19 03:49:40;;;;;;;77.05;44.25;;;4.50;99.90;;;;;;4940192;29;20066;-68
2023/02/19 03:52:16;;;;;;;80.75;46.03;;;4.30;99.90;;;;;;4955268;28;20039;-70
2023/02/19 03:55:15;;;;;;;84.03;46.83;;;4.50;99.90;;;;;;4954847;28;20040;-66
2023/02/19 03:57:54;;;;;;;77.18;45.25;;;4.20;99.90;;;;;;4954314;29;20053;-71
2023/02/19 04:00:48;;;;;;;78.78;47.83;;;4.20;99.90;;;;;;4955448;28;20058;-69
2023/02/19 04:03:28;;;;;;;77.15;43.25;;;4.50;99.90;;;;;;4944059;29;20087;-70
2023/02/19 04:06:01;;;;;;;75.72;44.30;;;4.70;99.90;;;;;;4955159;29;20094;-69
2023/02/19 04:08:30;;;;;;;79.80;45.38;;;4.90;99.90;;;;;;4955193;28;20047;-64
2023/02/19 04:10:59;;;;;;;69.38;45.75;;;4.80;99.90;;;;;;4955280;28;20420;-63
2023/02/19 04:13:39;;;;;;;63.13;40.08;;;4.70;99.90;;;;;;4953958;29;20059;-65
2023/02/19 04:16:11;;;;;;;66.10;38.88;;;4.80;99.90;;;;;;4955046;29;20499;-69
2023/02/19 04:18:42;;;;;;;46.80;31.85;;;4.60;99.90;;;;;;4954899;28;20047;-67
2023/02/19 04:21:10;;;;;;;60.10;34.08;;;4.20;99.90;;;;;;4953653;29;20459;-65
2023/02/19 04:23:41;;;;;;;54.80;35.05;;;4.30;99.90;;;;;;4936632;29;20051;-65
2023/02/19 04:26:10;;;;;;;66.18;39.20;;;4.40;99.90;;;;;;4947779;29;20047;-69
2023/02/19 04:28:39;;;;;;;76.03;42.67;;;4.60;99.90;;;;;;4955399;28;20046;-66
2023/02/19 04:31:06;;;;;;;83.72;47.50;;;4.60;99.90;;;;;;4954854;28;20069;-64
2023/02/19 04:33:34;;;;;;;80.85;47.42;;;4.50;99.90;;;;;;4942626;29;20412;-66
2023/02/19 04:36:01;;;;;;;85.10;48.00;;;4.40;99.90;;;;;;4953717;29;20063;-66
2023/02/19 04:38:28;;;;;;;84.57;49.03;;;4.40;99.90;;;;;;4954613;29;20046;-65
2023/02/19 04:40:56;;;;;;;81.97;47.28;;;4.50;99.90;;;;;;4953407;29;20047;-63
2023/02/19 04:43:23;;;;;;;72.75;45.03;;;4.50;99.90;;;;;;4954293;29;20051;-66
2023/02/19 04:45:50;;;;;;;85.88;49.40;;;4.30;99.90;;;;;;4954962;28;20043;-69
2023/02/19 04:48:17;;;;;;;87.90;47.58;;;4.20;99.90;;;;;;4952905;28;20138;-69
2023/02/19 04:50:44;;;;;;;82.10;45.13;;;4.30;99.90;;;;;;4953775;29;20415;-71
2023/02/19 04:53:12;;;;;;;85.30;46.75;;;4.30;99.90;;;;;;4953028;29;20047;-65
2023/02/19 04:55:39;;;;;;;90.50;47.67;;;4.20;99.90;;;;;;4954590;29;20044;-66
2023/02/19 04:58:06;;;;;;;84.60;48.30;;;4.20;99.90;;;;;;4953223;29;20058;-65
2023/02/19 05:00:34;;;;;;;85.70;47.63;;;4.30;99.90;;;;;;4954029;28;20039;-67
2023/02/19 05:03:01;;;;;;;87.95;49.05;;;4.30;99.90;;;;;;4954192;29;20055;-68
2023/02/19 05:05:28;;;;;;;87.15;49.60;;;4.30;99.90;;;;;;4953883;29;20078;-72
2023/02/19 05:07:59;;;;;;;85.63;48.55;;;4.10;99.90;;;;;;4949601;29;20044;-71
2023/02/19 05:10:26;;;;;;;84.43;50.88;;;4.20;99.90;;;;;;4949827;29;20507;-70
2023/02/19 05:12:54;;;;;;;79.57;49.47;;;4.20;99.90;;;;;;4954379;28;20063;-69
2023/02/19 05:15:24;;;;;;;78.88;48.17;;;4.20;99.90;;;;;;4937031;29;20085;-72
2023/02/19 05:17:51;;;;;;;83.32;49.50;;;4.30;99.90;;;;;;4933975;29;20043;-68
2023/02/19 05:20:18;;;;;;;82.43;48.83;;;4.20;99.90;;;;;;4936429;29;20051;-71
2023/02/19 05:22:46;;;;;;;77.85;46.90;;;4.20;99.90;;;;;;4953240;29;20062;-66
2023/02/19 05:25:13;;;;;;;81.82;46.95;;;4.20;99.90;;;;;;4952512;29;20101;-66
2023/02/19 05:27:40;;;;;;;84.63;48.78;;;4.20;99.90;;;;;;4935792;29;20070;-68
2023/02/19 05:30:11;;;;;;;82.57;48.00;;;4.20;99.90;;;;;;4953371;29;20086;-68
2023/02/19 05:32:38;;;;;;;130.13;72.68;;;4.00;99.90;;;;;;4919430;29;20483;-66
2023/02/19 05:35:06;;;;;;;96.07;57.45;;;4.00;99.90;;;;;;4952451;29;20039;-66
2023/02/19 05:37:33;;;;;;;87.70;50.22;;;4.10;99.90;;;;;;4952286;29;20035;-66
2023/02/19 05:40:00;;;;;;;123.38;66.55;;;4.00;99.90;;;;;;4951603;29;20035;-68
2023/02/19 05:42:28;;;;;;;84.72;50.92;;;3.80;99.90;;;;;;4951096;29;20361;-64
2023/02/19 05:44:55;;;;;;;85.50;46.25;;;3.70;99.90;;;;;;4935952;29;20047;-65
2023/02/19 05:47:22;;;;;;;77.47;45.28;;;3.50;99.90;;;;;;4952010;29;20582;-66
2023/02/19 05:49:49;;;;;;;75.22;44.47;;;3.60;99.90;;;;;;4952459;29;20035;-69
2023/02/19 05:52:16;;;;;;;70.22;44.63;;;3.70;99.90;;;;;;4947144;29;20043;-67
2023/02/19 05:54:44;;;;;;;72.63;41.50;;;3.90;99.90;;;;;;4952179;29;20039;-68
2023/02/19 05:57:11;;;;;;;71.32;42.45;;;3.80;99.90;;;;;;4953533;29;20047;-69
2023/02/19 05:59:38;;;;;;;69.15;41.88;;;3.70;99.90;;;;;;4921701;29;20077;-69
2023/02/19 06:02:05;;;;;;;72.53;42.60;;;3.60;99.90;;;;;;4953033;29;20051;-70
2023/02/19 06:04:33;;;;;;;64.68;41.78;;;3.70;99.90;;;;;;4946571;29;20047;-73
2023/02/19 06:07:00;;;;;;;64.63;42.25;;;3.70;99.90;;;;;;4950056;29;20542;-68
2023/02/19 06:09:27;;;;;;;72.32;41.60;;;3.30;99.90;;;;;;4953046;29;20049;-70
2023/02/19 06:11:54;;;;;;;60.80;38.05;;;3.40;99.90;;;;;;4952847;29;20570;-65
2023/02/19 06:14:22;;;;;;;65.25;41.13;;;3.70;99.90;;;;;;4953225;28;20442;-64
2023/02/19 06:16:49;;;;;;;62.13;38.90;;;3.80;99.90;;;;;;4952759;29;20432;-67
2023/02/19 06:19:16;;;;;;;64.20;37.25;;;3.80;99.90;;;;;;4951327;29;20539;-66
2023/02/19 06:21:44;;;;;;;62.25;38.05;;;3.50;99.90;;;;;;4951171;29;20551;-66
2023/02/19 06:24:11;;;;;;;63.83;38.50;;;3.50;99.90;;;;;;4934406;29;20059;-65
2023/02/19 06:26:38;;;;;;;71.20;40.92;;;3.50;99.90;;;;;;4951279;29;20046;-67
2023/02/19 06:29:06;;;;;;;60.45;37.78;;;3.80;99.90;;;;;;4934279;29;20043;-67
2023/02/19 06:31:33;;;;;;;63.78;39.38;;;3.80;99.90;;;;;;4950956;29;20035;-69
2023/02/19 06:34:03;;;;;;;69.53;41.95;;;3.80;99.90;;;;;;4927967;29;20098;-65
2023/02/19 06:36:31;;;;;;;65.63;38.85;;;3.70;99.90;;;;;;4935387;29;20047;-70
2023/02/19 06:39:00;;;;;;;68.85;41.90;;;3.90;99.90;;;;;;4952506;29;20530;-66
2023/02/19 06:41:27;;;;;;;74.32;43.45;;;4.20;99.90;;;;;;4931880;29;20047;-67
2023/02/19 06:43:56;;;;;;;61.60;40.08;;;4.10;99.90;;;;;;4941030;29;20065;-65
2023/02/19 06:46:26;;;;;;;67.85;40.45;;;4.20;99.90;;;;;;4924701;29;20353;-65
2023/02/19 06:48:54;;;;;;;66.70;38.45;;;4.60;99.90;;;;;;4941174;29;20047;-67
2023/02/19 06:51:23;;;;;;;65.68;40.53;;;4.70;99.90;;;;;;4924209;29;20102;-68
2023/02/19 06:53:50;;;;;;;63.17;39.75;;;4.80;99.90;;;;;;4942053;29;20047;-67
2023/02/19 06:56:25;;;;;;;71.97;41.15;;;4.70;99.90;;;;;;4924367;29;20058;-65
2023/02/19 06:58:54;;;;;;;60.70;38.55;;;4.80;99.90;;;;;;4924049;29;20403;-69
2023/02/19 07:01:22;;;;;;;58.63;37.35;;;4.90;99.90;;;;;;4923794;29;20404;-71
2023/02/19 07:03:51;;;;;;;64.20;37.47;;;4.90;99.90;;;;;;4920499;29;20127;-67
2023/02/19 07:06:20;;;;;;;50.72;33.67;;;4.90;99.90;;;;;;4935162;29;20117;-67
2023/02/19 07:08:48;;;;;;;54.95;33.63;;;5.00;99.90;;;;;;4919326;29;20435;-68
2023/02/19 07:11:15;;;;;;;50.92;34.10;;;5.10;99.90;;;;;;4921302;29;20046;-69
2023/02/19 07:13:44;;;;;;;51.58;34.15;;;5.10;99.90;;;;;;4944396;28;20051;-67
2023/02/19 07:16:12;;;;;;;55.83;34.13;;;5.10;99.90;;;;;;4970924;28;20117;-69
2023/02/19 07:18:40;;;;;;;52.05;34.30;;;5.20;99.90;;;;;;4953414;28;20035;-66
2023/02/19 07:21:12;;;;;;;58.78;33.45;;;5.20;99.90;;;;;;4969596;28;20039;-65
2023/02/19 07:23:40;;;;;;;54.95;35.00;;;5.30;99.90;;;;;;4951109;28;20059;-68
2023/02/19 07:26:10;;;;;;;55.63;34.05;;;5.30;99.90;;;;;;4967948;28;20122;-72
2023/02/19 07:28:42;;;;;;;58.88;36.28;;;5.20;99.90;;;;;;4954840;28;20380;-69
2023/02/19 07:31:09;;;;;;;55.03;36.05;;;5.30;99.90;;;;;;4954465;28;20062;-65
2023/02/19 07:33:37;;;;;;;60.42;38.45;;;5.40;99.90;;;;;;4955542;28;20039;-68
2023/02/19 07:36:06;;;;;;;59.70;37.08;;;5.50;99.90;;;;;;4975015;28;20053;-74
2023/02/19 07:38:34;;;;;;;141.20;77.68;;;5.70;99.90;;;;;;4974383;28;20487;-73
2023/02/19 07:41:03;;;;;;;169.60;91.57;;;5.90;99.90;;;;;;4974295;28;20043;-73
2023/02/19 07:43:32;;;;;;;71.05;48.22;;;6.10;99.90;;;;;;4940868;28;20055;-70
2023/02/19 07:46:08;;;;;;;67.55;40.40;;;6.20;99.90;;;;;;4957806;28;20427;-67
2023/02/19 07:48:36;;;;;;;61.55;37.92;;;6.20;99.90;;;;;;4972015;28;20515;-65
2023/02/19 07:51:05;;;;;;;57.42;35.03;;;6.10;99.90;;;;;;4957758;28;20078;-67
2023/02/19 07:53:34;;;;;;;62.08;38.25;;;6.20;99.90;;;;;;4957031;28;20037;-66
2023/02/19 07:56:06;;;;;;;62.58;38.42;;;6.50;99.90;;;;;;4957237;28;20047;-67
2023/02/19 07:58:34;;;;;;;56.28;38.53;;;6.30;99.90;;;;;;4954452;28;20130;-70
2023/02/19 08:01:14;;;;;;;66.60;39.60;;;6.30;99.90;;;;;;4973916;28;20406;-66
2023/02/19 08:03:42;;;;;;;;;;;6.30;99.90;;;;;;4974770;28;20538;-71
2023/02/19 08:06:10;;;;;;;53.38;36.63;;;6.50;99.90;;;;;;4974539;28;20009;-71
2023/02/19 08:08:38;;;;;;;59.65;38.40;;;6.60;99.90;;;;;;4956459;28;20039;-66
2023/02/19 08:13:52;;;;;;;54.55;36.08;;;6.90;99.90;;;;;;4963131;28;20194;-73
2023/02/19 08:16:21;;;;;;;58.42;36.13;;;7.10;99.90;;;;;;4954244;29;20121;-66
2023/02/19 08:19:06;;;;;;;57.22;37.10;;;7.20;99.90;;;;;;4939533;29;20264;-66
2023/02/19 08:21:34;;;;;;;56.22;37.10;;;7.30;99.90;;;;;;4951944;28;20498;-74
2023/02/19 08:24:01;;;;;;;53.92;35.00;;;7.50;99.90;;;;;;4937180;29;20043;-72
2023/02/19 08:26:28;;;;;;;54.60;35.78;;;7.70;99.90;;;;;;4953667;29;20043;-65
2023/02/19 08:28:55;;;;;;;55.00;35.33;;;7.90;99.90;;;;;;4937358;29;20427;-71
2023/02/19 08:31:22;;;;;;;64.40;37.72;;;8.00;99.90;;;;;;4954253;29;20047;-73
2023/02/19 08:33:50;;;;;;;62.25;38.63;;;8.10;99.90;;;;;;4954451;29;20067;-68
2023/02/19 08:36:17;;;;;;;64.47;40.85;;;8.20;99.90;;;;;;4953929;29;20078;-75
2023/02/19 08:38:45;;;;;;;62.15;39.92;;;8.30;99.90;;;;;;4935553;29;20047;-70
2023/02/19 08:41:13;;;;;;;60.22;38.70;;;8.50;99.90;;;;;;4923103;29;20050;-68
2023/02/19 08:43:41;;;;;;;227.00;117.60;;;8.60;99.90;;;;;;4941060;29;20090;-74
2023/02/19 08:46:10;;;;;;;109.90;70.18;;;9.40;99.90;;;;;;4928452;29;20047;-66
2023/02/19 08:48:38;;;;;;;68.05;45.75;;;9.60;99.90;;;;;;4942843;29;20508;-65
2023/02/19 08:51:08;;;;;;;58.80;40.25;;;9.60;99.90;;;;;;4911783;29;20048;-65
2023/02/19 08:53:37;;;;;;;;;;;9.60;98.80;;;;;;4939866;29;20053;-66
2023/02/19 08:56:13;;;;;;;55.15;37.92;;;9.70;98.80;;;;;;4925865;29;19930;-67
2023/02/19 08:58:40;;;;;;;56.35;38.17;;;9.90;98.20;;;;;;4944457;29;20051;-65
2023/02/19 09:01:11;;;;;;;61.40;36.95;;;10.10;97.80;;;;;;4943465;29;20055;-66
2023/02/19 09:03:40;;;;;;;56.00;37.35;;;10.00;97.20;;;;;;4940348;29;20131;-68
2023/02/19 09:06:12;;;;;;;52.00;35.58;;;10.00;97.80;;;;;;4944217;29;20135;-66
2023/02/19 09:08:39;;;;;;;48.15;32.65;;;10.00;97.60;;;;;;4941883;29;20040;-72
2023/02/19 09:11:06;;;;;;;50.75;33.45;;;9.80;97.70;;;;;;4926962;29;20058;-66
2023/02/19 09:13:33;;;;;;;51.45;35.30;;;9.90;98.00;;;;;;4945584;28;20057;-67
2023/02/19 09:16:03;;;;;;;49.85;35.97;;;9.90;97.80;;;;;;4940927;29;20047;-71
2023/02/19 09:18:31;;;;;;;52.10;34.55;;;10.30;97.40;;;;;;4942394;29;20138;-66
2023/02/19 09:21:00;;;;;;;52.42;35.10;;;10.40;96.90;;;;;;4941732;29;20059;-69
2023/02/19 09:23:28;;;;;;;53.03;33.88;;;10.70;96.40;;;;;;4941793;29;20039;-66
2023/02/19 09:25:59;;;;;;;50.83;33.20;;;10.70;96.20;;;;;;4942233;28;20043;-67
2023/02/19 09:28:27;;;;;;;51.38;32.58;;;10.80;96.10;;;;;;4942262;29;20031;-67
2023/02/19 09:30:54;;;;;;;49.30;32.83;;;11.10;95.60;;;;;;4942443;28;20102;-65
2023/02/19 09:33:22;;;;;;;50.20;32.17;;;11.20;94.80;;;;;;4940871;29;20496;-68
2023/02/19 09:35:49;;;;;;;45.53;32.05;;;11.50;94.00;;;;;;4941069;29;20066;-68
2023/02/19 09:38:16;;;;;;;56.38;33.83;;;11.60;93.90;;;;;;4953261;29;20038;-69
2023/02/19 09:40:43;;;;;;;45.78;32.50;;;11.80;93.70;;;;;;4953306;28;20071;-70
2023/02/19 09:43:17;;;;;;;205.73;111.22;;;12.00;92.80;;;;;;4946817;29;20055;-70
2023/02/19 09:45:45;;;;;;;70.57;45.47;;;12.30;95.20;;;;;;4951373;29;20448;-69
2023/02/19 09:48:12;;;;;;;60.15;37.38;;;12.50;91.90;;;;;;4943716;29;20042;-68
2023/02/19 09:50:46;;;;;;;48.85;31.85;;;12.50;91.40;;;;;;4951718;29;20050;-69
2023/02/19 09:53:25;;;;;;;43.53;30.30;;;12.60;91.20;;;;;;4951730;29;20070;-69
2023/02/19 09:55:53;;;;;;;44.30;29.60;;;12.50;90.80;;;;;;4950478;29;20042;-69
2023/02/19 09:58:20;;;;;;;49.22;30.55;;;12.70;92.30;;;;;;4953940;28;20046;-70
2023/02/19 10:00:49;;;;;;;58.47;37.60;;;13.20;90.90;;;;;;4951215;29;20043;-69
2023/02/19 10:03:40;;;;;;;33.63;23.27;;;13.30;90.70;;;;;;4952070;28;20043;-70
2023/02/19 10:06:13;;;;;;;33.15;20.17;;;13.20;89.50;;;;;;4952392;28;20051;-68
2023/02/19 10:08:41;;;;;;;34.47;21.25;;;13.30;89.30;;;;;;4951758;29;20527;-68
2023/02/19 10:11:12;;;;;;;27.08;19.45;;;13.20;88.30;;;;;;4935742;29;20057;-71
2023/02/19 10:13:46;;;;;;;31.70;19.17;;;13.40;87.60;;;;;;4952151;28;20078;-71
2023/02/19 10:16:22;;;;;;;32.67;21.73;;;13.60;87.70;;;;;;4952699;29;20500;-69
2023/02/19 10:18:50;;;;;;;35.25;24.13;;;13.70;87.50;;;;;;4936635;29;20050;-72
2023/02/19 10:21:23;;;;;;;38.13;23.13;;;14.20;87.70;;;;;;4935955;29;20054;-71
2023/02/19 10:23:55;;;;;;;34.67;21.38;;;14.50;86.20;;;;;;4908361;29;20047;-68
2023/02/19 10:26:23;;;;;;;35.05;22.33;;;14.60;83.60;;;;;;4952074;29;20046;-70
2023/02/19 10:28:50;;;;;;;24.42;17.33;;;14.60;82.40;;;;;;4942373;29;20508;-70
2023/02/19 10:31:20;;;;;;;25.40;16.48;;;14.70;80.80;;;;;;4952412;29;20046;-73
2023/02/19 10:33:52;;;;;;;22.17;15.55;;;14.80;78.90;;;;;;4936188;29;20047;-69
2023/02/19 10:36:38;;;;;;;23.08;14.02;;;14.80;77.70;;;;;;4934729;29;20051;-69
2023/02/19 10:39:21;;;;;;;21.95;13.82;;;14.80;76.90;;;;;;4950344;29;20063;-68
2023/02/19 10:41:50;;;;;;;20.88;13.68;;;14.80;77.10;;;;;;4952218;29;20448;-70
2023/02/19 10:44:22;;;;;;;18.23;12.25;;;15.10;76.40;;;;;;4951770;29;20042;-73
2023/02/19 10:46:54;;;;;;;23.48;12.27;;;15.40;74.60;;;;;;4922238;29;20163;-69
2023/02/19 10:49:29;;;;;;;19.77;12.23;;;15.40;74.40;;;;;;4940063;29;20412;-73
2023/02/19 10:52:01;;;;;;;15.82;10.75;;;15.80;73.80;;;;;;4923704;29;20062;-70
2023/02/19 10:54:31;;;;;;;18.98;11.93;;;16.10;72.20;;;;;;4956300;29;20079;-69
2023/02/19 10:57:14;;;;;;;16.60;11.50;;;16.40;71.40;;;;;;4928288;29;20522;-66
2023/02/19 10:59:51;;;;;;;15.05;10.07;;;16.30;69.80;;;;;;4923769;29;20070;-70
2023/02/19 11:02:20;;;;;;;16.20;10.55;;;16.30;69.10;;;;;;4939027;29;20059;-70
2023/02/19 11:05:22;;;;;;;15.98;10.65;;;16.60;69.10;;;;;;4923723;29;20051;-69
2023/02/19 11:07:53;;;;;;;18.38;11.63;;;16.90;68.10;;;;;;4946126;29;20047;-67
2023/02/19 11:10:38;;;;;;;35.22;25.35;;;17.10;67.70;;;;;;4939568;29;20043;-71
2023/02/19 11:13:13;;;;;;;100.45;72.97;;;18.40;68.50;;;;;;4939721;29;20059;-72
2023/02/19 11:15:42;;;;;;;25.60;19.42;;;21.10;59.00;;;;;;4955068;28;20368;-70
2023/02/19 11:18:12;;;;;;;65.07;46.42;;;22.90;52.80;;;;;;4953918;29;20036;-71
2023/02/19 11:20:56;;;;;;;32.78;24.90;;;23.50;52.50;;;;;;4944107;23;20432;-69
2023/02/19 11:23:29;;;;;;;51.10;40.85;;;24.60;51.40;;;;;;4955308;29;20089;-73
2023/02/19 11:26:01;;;;;;;104.10;80.20;;;25.40;52.10;;;;;;4936884;29;20043;-72
2023/02/19 11:28:38;;;;;;;24.10;17.77;;;26.50;49.00;;;;;;4955159;29;20039;-71
2023/02/19 11:31:25;;;;;;;22.17;15.70;;;26.30;46.00;;;;;;4950060;29;20066;-68
2023/02/19 11:34:19;;;;;;;18.42;13.23;;;26.70;46.50;;;;;;4952132;29;20066;-71
2023/02/19 11:37:12;;;;;;;20.33;12.18;;;26.70;45.20;;;;;;4955903;29;20057;-68
2023/02/19 11:39:57;;;;;;;16.25;10.57;;;24.50;45.80;;;;;;4936741;29;20078;-75
2023/02/19 11:43:06;;;;;;;13.75;9.63;;;22.40;49.90;;;;;;4956350;29;20043;-71
2023/02/19 11:45:42;;;;;;;14.63;10.18;;;21.20;51.30;;;;;;4956114;29;20047;-76
2023/02/19 11:48:21;;;;;;;17.38;12.02;;;20.90;52.90;;;;;;4950008;29;20055;-75
2023/02/19 11:51:08;;;;;;;15.25;11.40;;;20.80;52.70;;;;;;4954740;29;20134;-70
2023/02/19 11:53:45;;;;;;;15.43;10.77;;;20.00;53.60;;;;;;4938349;29;20057;-70
2023/02/19 11:56:23;;;;;;;18.58;11.73;;;19.80;54.40;;;;;;4953262;28;20409;-70
2023/02/19 11:58:58;;;;;;;13.90;10.05;;;20.30;54.00;;;;;;4938012;29;20481;-73
2023/02/19 12:01:50;;;;;;;16.33;9.95;;;20.70;53.00;;;;;;4936571;29;20051;-71
2023/02/19 12:04:45;;;;;;;16.88;9.73;;;20.80;53.10;;;;;;4936093;29;20086;-75
2023/02/19 12:07:30;;;;;;;12.95;8.35;;;20.70;52.40;;;;;;4954924;29;20428;-70
2023/02/19 12:10:16;;;;;;;12.18;8.30;;;20.70;52.40;;;;;;4936136;29;20130;-70
2023/02/19 12:13:18;;;;;;;25.35;17.55;;;21.20;51.70;;;;;;4952140;29;20050;-71
2023/02/19 12:15:57;;;;;;;67.18;49.15;;;21.10;51.90;;;;;;4950397;29;20055;-70
2023/02/19 12:18:25;;;;;;;20.75;14.93;;;21.60;51.40;;;;;;4954871;29;20043;-72
2023/02/19 12:21:27;;;;;;;13.82;8.38;;;21.80;52.40;;;;;;4954410;29;20392;-72
2023/02/19 12:24:34;;;;;;;12.63;8.25;;;22.00;52.00;;;;;;4943613;29;20401;-74
2023/02/19 12:27:24;;;;;;;13.55;7.88;;;22.80;50.30;;;;;;4937632;29;20146;-72
2023/02/19 12:30:32;;;;;;;12.00;8.15;;;25.70;46.70;;;;;;4953220;29;20049;-72
2023/02/19 12:33:17;;;;;;;11.98;8.00;;;25.90;44.30;;;;;;4919810;29;20051;-73
2023/02/19 12:36:23;;;;;;;10.70;8.23;;;24.20;45.70;;;;;;4922276;29;20399;-71
2023/02/19 12:38:56;;;;;;;10.90;7.40;;;23.00;46.90;;;;;;4954632;29;20039;-71
2023/02/19 12:41:52;;;;;;;14.10;8.23;;;22.10;48.40;;;;;;4953634;29;20047;-72
2023/02/19 12:44:34;;;;;;;10.55;7.13;;;23.70;47.70;;;;;;4897494;29;20043;-72
2023/02/19 12:47:05;;;;;;;12.88;7.40;;;26.50;43.80;;;;;;4919319;29;20142;-74
2023/02/19 12:49:38;;;;;;;10.40;8.10;;;27.70;42.00;;;;;;4936714;23;20522;-72
2023/02/19 12:52:21;;;;;;;10.98;8.30;;;28.60;42.00;;;;;;4942129;29;20055;-71
2023/02/19 12:54:52;;;;;;;18.40;13.65;;;30.40;40.00;;;;;;4950744;28;20073;-72
2023/02/19 12:57:35;;;;;;;52.33;41.97;;;31.00;38.50;;;;;;4949428;29;20126;-73
2023/02/19 13:00:25;;;;;;;295.42;236.02;;;29.50;40.20;;;;;;4927546;29;20062;-71
2023/02/19 13:02:59;;;;;;;24.95;20.77;;;27.90;42.10;;;;;;4948564;29;20050;-70
2023/02/19 13:05:45;;;;;;;12.70;7.82;;;24.90;43.50;;;;;;4951343;29;20454;-71
2023/02/19 13:08:34;;;;;;;11.40;8.23;;;21.80;46.40;;;;;;4949337;28;20055;-71
2023/02/19 13:11:21;;;;;;;12.13;8.07;;;21.10;48.80;;;;;;4951994;29;20046;-72
2023/02/19 13:14:20;;;;;;;11.18;7.15;;;22.50;47.90;;;;;;4952353;29;20055;-72
2023/02/19 13:16:52;;;;;;;11.23;7.45;;;23.90;44.60;;;;;;4936084;29;20043;-73
2023/02/19 13:19:22;;;;;;;11.80;7.85;;;24.80;42.40;;;;;;4952822;29;20042;-71
2023/02/19 13:24:55;;;;;;;11.50;8.05;;;21.90;46.30;;;;;;4952074;29;20563;-72
2023/02/19 13:27:43;;;;;;;11.35;7.65;;;21.50;46.40;;;;;;4937002;29;20137;-72
2023/02/19 13:30:22;;;;;;;10.30;7.15;;;22.70;46.30;;;;;;4937216;29;20078;-74
2023/02/19 13:33:08;;;;;;;13.70;10.15;;;24.80;42.90;;;;;;4936494;29;20047;-74
2023/02/19 13:35:53;;;;;;;11.32;8.48;;;27.90;42.70;;;;;;4952659;29;20047;-72